Time;durP1;ratioP1;P1;durP2;ratioP2;P2;SDS_P1;SDS_P2;PMS_P1;PMS_P2;Temp;Humidity;BMP_temperature;BMP_pressure;BME280_temperature;BME280_humidity;BME280_pressure;Samples;Min_cycle;Max_cycle;Signal;HPM_P1;HPM_P2
2022/12/05 13:05:50;;;;;;;24.60;17.48;;;18.80;52.70;;;;;;5087460;27;20344;-72
2022/12/05 13:08:31;;;;;;;23.08;15.50;;;18.80;51.90;;;;;;5088216;28;20039;-73
2022/12/05 13:11:00;;;;;;;21.25;12.68;;;18.90;51.80;;;;;;5087966;28;20162;-73
2022/12/05 13:13:33;;;;;;;19.85;11.90;;;18.90;52.10;;;;;;5086543;28;20237;-72
2022/12/05 13:16:04;;;;;;;35.78;24.33;;;18.90;52.50;;;;;;5094112;22;20041;-76
2022/12/05 13:18:30;;;;;;;39.28;25.52;;;18.90;51.30;;;;;;5043247;28;20017;-76
2022/12/05 13:20:59;;;;;;;39.97;23.88;;;18.80;49.70;;;;;;5044707;28;20087;-76
2022/12/05 13:23:33;;;;;;;36.07;21.60;;;18.80;49.30;;;;;;5047611;28;20030;-76
2022/12/05 13:26:00;;;;;;;33.25;19.83;;;18.80;49.80;;;;;;5046456;28;20283;-76
2022/12/05 13:28:32;;;;;;;29.98;18.75;;;18.80;51.30;;;;;;5046858;28;20025;-76
2022/12/05 13:31:01;;;;;;;31.58;18.23;;;18.90;51.30;;;;;;5048067;28;20025;-76
2022/12/05 13:33:41;;;;;;;26.70;18.00;;;18.90;52.30;;;;;;5048450;28;20067;-76
2022/12/05 13:44:47;;;;;;;29.85;17.55;;;19.00;52.10;;;;;;5045865;28;20017;-77
2022/12/05 13:47:36;;;;;;;66.32;45.90;;;19.10;53.30;;;;;;5045372;28;20056;-77
2022/12/05 13:50:13;;;;;;;138.57;95.07;;;18.90;49.60;;;;;;5039894;28;20064;-75
2022/12/05 13:52:45;;;;;;;121.63;82.90;;;18.60;47.30;;;;;;5039679;28;20439;-75
2022/12/05 13:55:26;;;;;;;103.15;70.32;;;18.50;47.70;;;;;;5041773;28;20101;-75
2022/12/05 13:57:54;;;;;;;92.10;63.45;;;18.60;49.20;;;;;;5045153;28;20444;-75
2022/12/05 14:00:32;;;;;;;80.85;56.45;;;18.70;49.80;;;;;;5043148;28;20061;-82
2022/12/05 14:03:02;;;;;;;77.70;55.50;;;18.70;49.60;;;;;;5044705;28;20026;-69
2022/12/05 14:05:43;;;;;;;76.38;53.80;;;18.70;49.40;;;;;;5044161;28;20029;-75
2022/12/05 14:08:27;;;;;;;84.28;54.50;;;18.50;47.50;;;;;;5045627;28;20045;-75
2022/12/05 14:10:53;;;;;;;80.20;51.58;;;18.50;47.70;;;;;;5045470;28;20087;-75
2022/12/05 14:13:19;;;;;;;79.50;51.92;;;18.50;48.20;;;;;;5047318;28;20413;-75
2022/12/05 14:15:47;;;;;;;74.65;50.22;;;18.60;48.80;;;;;;5036556;28;20026;-75
2022/12/05 14:18:15;;;;;;;75.05;49.78;;;18.60;49.00;;;;;;5032826;28;20668;-75
2022/12/05 14:20:49;;;;;;;69.00;47.72;;;18.70;49.00;;;;;;5034022;28;20036;-75
2022/12/05 14:23:49;;;;;;;74.25;48.40;;;18.70;49.20;;;;;;5034193;28;20195;-75
2022/12/05 14:26:31;;;;;;;;;;;18.70;49.60;;;;;;5024386;28;20037;-75
2022/12/05 14:29:32;;;;;;;67.00;45.40;;;18.80;49.80;;;;;;5033202;28;19909;-75
2022/12/05 14:32:21;;;;;;;65.85;45.25;;;18.80;49.80;;;;;;5033874;28;20032;-75
2022/12/05 14:35:13;;;;;;;65.07;44.10;;;18.80;49.90;;;;;;5034152;28;20026;-75
2022/12/05 14:37:40;;;;;;;65.50;45.05;;;18.90;50.10;;;;;;5032668;28;20049;-76
2022/12/05 14:40:32;;;;;;;61.95;43.33;;;18.90;50.20;;;;;;5033950;28;20485;-75
2022/12/05 14:43:02;;;;;;;63.15;43.25;;;18.90;50.30;;;;;;5032675;28;20040;-75
2022/12/05 14:45:33;;;;;;;;;;;18.90;50.30;;;;;;5033015;28;20033;-75
2022/12/05 14:48:02;;;;;;;62.75;43.17;;;18.90;50.40;;;;;;5033769;28;19955;-75
2022/12/05 14:50:47;;;;;;;64.22;42.05;;;18.90;50.60;;;;;;5033549;28;20079;-75
2022/12/05 14:53:19;;;;;;;57.78;40.75;;;18.90;50.60;;;;;;5032599;28;20037;-75
2022/12/05 14:55:49;;;;;;;59.88;40.80;;;18.90;50.70;;;;;;5033615;28;20034;-74
2022/12/05 14:58:36;;;;;;;59.53;41.95;;;18.90;50.70;;;;;;5032297;28;20060;-75
2022/12/05 15:01:09;;;;;;;55.80;40.10;;;18.90;50.80;;;;;;5033263;28;20465;-76
2022/12/05 15:03:39;;;;;;;61.67;41.30;;;18.90;50.90;;;;;;5033614;28;20320;-76
2022/12/05 15:06:14;;;;;;;55.33;38.38;;;18.90;50.90;;;;;;5032188;28;20056;-76
2022/12/05 15:08:48;;;;;;;57.58;39.60;;;18.90;51.00;;;;;;5033598;28;20473;-76
2022/12/05 15:11:27;;;;;;;58.95;40.92;;;18.90;51.20;;;;;;5031793;28;20068;-77
2022/12/05 15:14:00;;;;;;;57.17;39.45;;;19.00;51.20;;;;;;5033633;28;20117;-77
2022/12/05 15:16:28;;;;;;;53.40;38.25;;;19.00;51.30;;;;;;5033180;28;20034;-77
2022/12/05 15:19:02;;;;;;;52.08;37.70;;;18.90;51.30;;;;;;5033236;28;20029;-77
2022/12/05 15:21:32;;;;;;;56.08;38.88;;;19.00;51.30;;;;;;5032744;28;20511;-76
2022/12/05 15:24:04;;;;;;;56.75;39.08;;;19.00;51.40;;;;;;5033161;28;20034;-76
2022/12/05 15:26:51;;;;;;;55.03;37.85;;;19.00;51.50;;;;;;5032440;28;20068;-76
2022/12/05 15:29:19;;;;;;;60.63;38.65;;;18.90;51.50;;;;;;5033079;28;20033;-77
2022/12/05 15:32:09;;;;;;;54.92;38.13;;;19.00;51.70;;;;;;5032525;28;20025;-77
2022/12/05 15:34:56;;;;;;;54.92;37.35;;;19.00;51.60;;;;;;5028428;28;20091;-75
2022/12/05 15:37:40;;;;;;;56.28;37.22;;;19.00;51.70;;;;;;5032619;28;20112;-75
2022/12/05 15:40:20;;;;;;;65.47;35.90;;;19.00;51.70;;;;;;5025653;28;20040;-76
2022/12/05 15:42:55;;;;;;;57.80;37.10;;;19.00;51.60;;;;;;5028549;28;20021;-75
2022/12/05 15:45:30;;;;;;;53.30;36.38;;;19.00;52.50;;;;;;5029482;28;20495;-75
2022/12/05 15:48:11;;;;;;;54.47;36.38;;;19.00;52.00;;;;;;5031333;28;20026;-75
2022/12/05 15:50:36;;;;;;;53.92;35.70;;;19.00;52.10;;;;;;5032460;28;20017;-75
2022/12/05 15:53:05;;;;;;;53.72;37.67;;;19.10;52.60;;;;;;5032674;28;20108;-74
2022/12/05 15:55:38;;;;;;;66.80;40.67;;;19.10;55.80;;;;;;5032879;28;20484;-75
2022/12/05 15:58:23;;;;;;;56.97;39.08;;;19.20;57.00;;;;;;5031624;28;20488;-75
2022/12/05 16:00:57;;;;;;;57.80;40.42;;;19.20;57.40;;;;;;5031286;28;20064;-75
2022/12/05 16:03:43;;;;;;;56.30;39.58;;;19.20;57.50;;;;;;5032517;28;20164;-75
2022/12/05 16:06:30;;;;;;;50.03;37.63;;;19.20;56.10;;;;;;5031099;28;20466;-75
2022/12/05 16:08:58;;;;;;;52.58;37.90;;;19.20;55.90;;;;;;5032371;28;20038;-75
2022/12/05 16:11:24;;;;;;;54.28;38.53;;;19.20;56.10;;;;;;5031992;28;20083;-74
2022/12/05 16:13:55;;;;;;;54.63;39.13;;;19.20;55.40;;;;;;5030966;28;20061;-75
2022/12/05 16:16:24;;;;;;;54.28;39.00;;;19.20;54.50;;;;;;5032235;28;20041;-75
2022/12/05 16:18:58;;;;;;;52.35;38.72;;;19.20;54.10;;;;;;5032143;28;20033;-75
2022/12/05 16:21:34;;;;;;;52.13;39.08;;;19.30;54.10;;;;;;5031943;28;20442;-75
2022/12/05 16:24:05;;;;;;;54.58;39.25;;;19.30;54.10;;;;;;5031952;28;20026;-75
2022/12/05 16:26:34;;;;;;;52.38;37.65;;;19.20;54.10;;;;;;5032097;28;20067;-75
2022/12/05 16:29:01;;;;;;;57.95;40.05;;;19.30;54.10;;;;;;5032052;28;20079;-76
2022/12/05 16:31:32;;;;;;;52.78;38.80;;;19.30;54.00;;;;;;5030514;28;20040;-75
2022/12/05 16:34:07;;;;;;;56.13;38.95;;;19.20;54.10;;;;;;5030895;28;20045;-75
2022/12/05 16:36:33;;;;;;;55.53;39.70;;;19.30;54.20;;;;;;5030709;28;20033;-76
2022/12/05 16:39:01;;;;;;;54.38;39.70;;;19.30;54.20;;;;;;5031629;28;20033;-75
2022/12/05 16:41:38;;;;;;;54.15;40.28;;;19.30;54.10;;;;;;5031526;28;20057;-75
2022/12/05 16:44:18;;;;;;;53.00;37.90;;;19.30;54.10;;;;;;5030379;28;20029;-76
2022/12/05 16:46:45;;;;;;;56.72;41.17;;;19.30;54.10;;;;;;5027248;28;20100;-76
2022/12/05 16:49:30;;;;;;;80.60;56.47;;;19.20;54.40;;;;;;5023115;28;20732;-75
2022/12/05 16:52:11;;;;;;;75.38;53.05;;;18.90;49.50;;;;;;5029327;28;20025;-75
2022/12/05 16:54:36;;;;;;;71.85;48.47;;;18.80;49.80;;;;;;5029883;28;20033;-74
2022/12/05 16:57:03;;;;;;;68.88;48.22;;;18.90;52.00;;;;;;5031651;28;20171;-76
2022/12/05 16:59:35;;;;;;;69.60;47.50;;;18.90;51.00;;;;;;5031632;28;20127;-75
2022/12/05 17:02:03;;;;;;;67.88;48.03;;;19.00;50.90;;;;;;5031349;28;20102;-75
2022/12/05 17:04:30;;;;;;;64.55;44.78;;;19.00;51.20;;;;;;5031748;28;20069;-75
2022/12/05 17:06:56;;;;;;;63.15;44.42;;;19.00;51.60;;;;;;5031688;28;20033;-75
2022/12/05 17:09:22;;;;;;;69.90;46.22;;;19.00;51.80;;;;;;5030362;28;20026;-76
2022/12/05 17:11:50;;;;;;;66.00;46.15;;;19.00;51.90;;;;;;5029993;28;20036;-75
2022/12/05 17:14:17;;;;;;;65.80;45.08;;;19.00;52.10;;;;;;5031032;28;20120;-74
2022/12/05 17:16:43;;;;;;;61.15;44.25;;;19.00;52.20;;;;;;5030246;28;20447;-74
2022/12/05 17:19:10;;;;;;;62.30;43.00;;;19.10;52.30;;;;;;5031407;28;20107;-74
2022/12/05 17:21:36;;;;;;;61.08;43.05;;;19.10;52.90;;;;;;5031107;28;20033;-75
2022/12/05 17:24:03;;;;;;;62.80;45.40;;;19.10;52.40;;;;;;5031264;28;20485;-74
2022/12/05 17:26:28;;;;;;;61.70;43.97;;;19.10;52.40;;;;;;5031269;28;20032;-74
2022/12/05 17:28:54;;;;;;;62.38;42.65;;;19.10;52.50;;;;;;5031339;28;20421;-74
2022/12/05 17:31:24;;;;;;;63.88;43.17;;;19.10;52.60;;;;;;5029904;28;20446;-74
2022/12/05 17:33:51;;;;;;;61.33;42.30;;;19.10;52.60;;;;;;5031291;28;20637;-74
2022/12/05 17:36:19;;;;;;;55.10;40.60;;;19.10;52.60;;;;;;5031246;28;20025;-74
2022/12/05 17:38:46;;;;;;;59.22;40.60;;;19.10;52.60;;;;;;5031253;28;20030;-74
2022/12/05 17:41:20;;;;;;;62.60;41.92;;;19.10;52.70;;;;;;5030790;28;20037;-74
2022/12/05 17:43:46;;;;;;;57.22;41.78;;;19.10;52.80;;;;;;5031379;28;20021;-75
2022/12/05 17:46:18;;;;;;;57.40;41.67;;;19.10;52.80;;;;;;5031180;28;20500;-74
2022/12/05 17:48:44;;;;;;;57.40;40.63;;;19.10;52.80;;;;;;5031205;28;20026;-74
2022/12/05 17:51:13;;;;;;;57.25;41.15;;;19.10;52.80;;;;;;5015767;28;20072;-75
2022/12/05 17:53:40;;;;;;;58.60;40.83;;;19.10;53.00;;;;;;5034689;28;20029;-75
2022/12/05 17:56:07;;;;;;;54.60;39.63;;;19.10;53.00;;;;;;5034621;28;20499;-75
2022/12/05 17:58:33;;;;;;;55.15;39.35;;;19.10;53.00;;;;;;5034824;28;20029;-75
2022/12/05 18:00:59;;;;;;;52.35;39.13;;;19.10;53.00;;;;;;5034435;28;20493;-75
2022/12/05 18:03:26;;;;;;;54.90;39.60;;;19.10;53.00;;;;;;5034421;28;20037;-76
2022/12/05 18:05:52;;;;;;;53.47;39.25;;;19.10;53.10;;;;;;5016849;28;20029;-75
2022/12/05 18:08:17;;;;;;;54.40;38.95;;;19.10;53.00;;;;;;5034372;28;20488;-75
2022/12/05 18:10:48;;;;;;;50.80;37.40;;;19.10;53.20;;;;;;5034457;28;20453;-76
2022/12/05 18:13:15;;;;;;;53.30;38.88;;;19.10;53.10;;;;;;5034480;28;20028;-76
2022/12/05 18:15:41;;;;;;;49.92;37.65;;;19.10;53.10;;;;;;5033135;28;20504;-76
2022/12/05 18:18:11;;;;;;;48.60;36.33;;;19.10;53.20;;;;;;5034270;28;20036;-76
2022/12/05 18:20:37;;;;;;;47.75;36.15;;;19.10;53.70;;;;;;5034053;28;20108;-76
2022/12/05 18:23:03;;;;;;;51.17;36.95;;;19.10;53.20;;;;;;5033311;28;20129;-74
2022/12/05 18:25:30;;;;;;;50.25;37.25;;;19.10;53.20;;;;;;5034068;28;20033;-75
2022/12/05 18:27:57;;;;;;;50.92;37.70;;;19.10;53.20;;;;;;5016561;28;20083;-75
2022/12/05 18:30:23;;;;;;;48.65;35.03;;;19.10;53.20;;;;;;5033989;28;20018;-76
2022/12/05 18:32:49;;;;;;;53.63;36.58;;;19.20;53.40;;;;;;5034121;28;20018;-76
2022/12/05 18:35:14;;;;;;;48.08;35.30;;;19.10;53.40;;;;;;5032653;28;20052;-75
2022/12/05 18:37:40;;;;;;;46.50;35.25;;;19.20;53.50;;;;;;5034062;28;20036;-76
2022/12/05 18:40:08;;;;;;;44.63;34.50;;;19.10;53.40;;;;;;5032815;28;20037;-76
2022/12/05 18:42:35;;;;;;;50.42;35.83;;;19.10;53.40;;;;;;5033778;28;20405;-76
2022/12/05 18:45:01;;;;;;;47.97;35.47;;;19.10;53.60;;;;;;5033783;28;20049;-75
2022/12/05 18:47:27;;;;;;;46.78;35.17;;;19.10;53.50;;;;;;5033867;28;20449;-75
2022/12/05 18:49:53;;;;;;;48.97;34.67;;;19.20;53.60;;;;;;5033834;28;20029;-76
2022/12/05 18:52:19;;;;;;;48.67;34.13;;;19.10;53.50;;;;;;5032277;28;20036;-76
2022/12/05 18:54:45;;;;;;;44.95;32.30;;;19.10;54.10;;;;;;5032411;28;20047;-76
2022/12/05 18:57:13;;;;;;;44.65;33.33;;;19.10;53.50;;;;;;5033678;28;20025;-76
2022/12/05 18:59:41;;;;;;;45.78;32.65;;;19.10;53.50;;;;;;5016335;28;20073;-76
2022/12/05 19:02:08;;;;;;;44.95;32.63;;;19.20;53.70;;;;;;5033161;28;20483;-76
2022/12/05 19:04:34;;;;;;;46.50;34.30;;;19.10;53.70;;;;;;5033313;28;20040;-76
2022/12/05 19:07:00;;;;;;;47.03;34.65;;;19.20;53.80;;;;;;5032293;28;20029;-76
2022/12/05 19:09:29;;;;;;;40.88;31.60;;;19.10;53.60;;;;;;5032161;28;20030;-76
2022/12/05 19:11:57;;;;;;;43.55;32.35;;;19.10;53.60;;;;;;5033239;28;20232;-76
2022/12/05 19:14:25;;;;;;;45.03;33.30;;;19.10;53.70;;;;;;5033402;28;20036;-76
2022/12/05 19:16:53;;;;;;;41.33;31.88;;;19.20;53.70;;;;;;5033270;28;20064;-76
2022/12/05 19:19:19;;;;;;;44.20;31.95;;;19.10;53.70;;;;;;5033194;28;20025;-76
2022/12/05 19:21:45;;;;;;;43.28;31.35;;;19.10;53.70;;;;;;5029449;28;20025;-76
2022/12/05 19:24:14;;;;;;;40.13;30.80;;;19.20;53.80;;;;;;5032678;28;20021;-76
2022/12/05 19:26:39;;;;;;;41.53;31.10;;;19.10;53.90;;;;;;5032069;28;20527;-76
2022/12/05 19:29:06;;;;;;;42.22;31.95;;;19.10;53.90;;;;;;5033130;28;20262;-76
2022/12/05 19:31:34;;;;;;;44.25;32.13;;;19.20;54.00;;;;;;5031742;28;20200;-76
2022/12/05 19:34:02;;;;;;;40.28;29.85;;;19.20;54.00;;;;;;5031737;28;20034;-76
2022/12/05 19:36:34;;;;;;;43.67;31.67;;;19.20;53.90;;;;;;5031674;28;20034;-76
2022/12/05 19:39:00;;;;;;;44.28;29.75;;;19.20;54.60;;;;;;5032844;28;20040;-76
2022/12/05 19:41:28;;;;;;;39.88;29.08;;;19.20;53.90;;;;;;5032496;28;20053;-77
2022/12/05 19:43:57;;;;;;;40.28;29.63;;;19.20;54.10;;;;;;5031723;28;20033;-77
2022/12/05 19:46:26;;;;;;;41.40;30.42;;;19.20;53.90;;;;;;5031453;28;20032;-76
2022/12/05 19:48:55;;;;;;;43.40;30.65;;;19.20;54.10;;;;;;5032767;28;20017;-77
2022/12/05 19:51:20;;;;;;;40.03;30.10;;;19.20;54.20;;;;;;5014790;28;20099;-75
2022/12/05 19:53:48;;;;;;;40.67;29.38;;;19.20;54.10;;;;;;5015391;28;20042;-75
2022/12/05 19:56:18;;;;;;;41.30;29.42;;;19.20;54.10;;;;;;5032427;28;20508;-75
2022/12/05 19:58:45;;;;;;;;;;;19.20;54.40;;;;;;5033040;28;20029;-76
2022/12/05 20:01:12;;;;;;;39.95;28.33;;;19.20;54.20;;;;;;5032193;28;19909;-75
2022/12/05 20:03:39;;;;;;;38.88;28.33;;;19.20;54.30;;;;;;5032428;28;20049;-75
2022/12/05 20:06:06;;;;;;;41.10;28.98;;;19.20;54.30;;;;;;5032265;28;20034;-75
2022/12/05 20:08:34;;;;;;;37.40;27.67;;;19.20;54.30;;;;;;5031413;28;20394;-76
2022/12/05 20:11:13;;;;;;;37.13;27.80;;;19.20;54.30;;;;;;5014255;28;20100;-76
2022/12/05 20:13:40;;;;;;;38.50;27.90;;;19.20;54.40;;;;;;5030853;28;20039;-75
2022/12/05 20:16:08;;;;;;;36.72;27.55;;;19.20;54.30;;;;;;5014496;28;20037;-75
2022/12/05 20:18:36;;;;;;;38.88;27.50;;;19.20;54.40;;;;;;5030939;28;20095;-75
2022/12/05 20:21:03;;;;;;;38.83;27.17;;;19.20;54.30;;;;;;5031860;28;20079;-75
2022/12/05 20:23:30;;;;;;;35.75;25.92;;;19.20;54.50;;;;;;5031967;28;20034;-75
2022/12/05 20:26:05;;;;;;;59.33;27.58;;;19.20;54.50;;;;;;5031825;28;20027;-76
2022/12/05 20:28:32;;;;;;;39.83;27.85;;;19.20;54.60;;;;;;5032020;28;20030;-75
2022/12/05 20:31:13;;;;;;;37.67;26.75;;;19.20;54.60;;;;;;5031647;28;20531;-75
2022/12/05 20:33:40;;;;;;;37.40;27.50;;;19.20;54.60;;;;;;5031984;28;20025;-75
2022/12/05 20:36:08;;;;;;;34.67;25.48;;;19.20;54.60;;;;;;5031746;28;20033;-77
2022/12/05 20:38:34;;;;;;;38.08;26.88;;;19.20;54.50;;;;;;5031835;28;20053;-74
2022/12/05 20:41:02;;;;;;;36.00;26.17;;;19.20;55.30;;;;;;5031559;28;20069;-76
2022/12/05 20:43:28;;;;;;;34.08;25.35;;;19.20;54.90;;;;;;5030657;28;20041;-76
2022/12/05 20:45:57;;;;;;;34.92;26.30;;;19.20;54.80;;;;;;5031714;28;20032;-76
2022/12/05 20:48:24;;;;;;;37.03;26.23;;;19.20;54.70;;;;;;5031719;28;20112;-76
2022/12/05 20:50:53;;;;;;;35.63;26.05;;;19.20;54.80;;;;;;5031318;28;20084;-76
2022/12/05 20:53:19;;;;;;;35.92;25.60;;;19.20;54.80;;;;;;5030504;28;20029;-76
2022/12/05 20:55:45;;;;;;;35.22;24.80;;;19.20;54.80;;;;;;5013866;28;20405;-76
2022/12/05 20:58:10;;;;;;;34.28;24.70;;;19.20;55.00;;;;;;5030602;28;20040;-76
2022/12/05 21:00:36;;;;;;;34.92;25.65;;;19.20;54.90;;;;;;5031730;28;20377;-76
2022/12/05 21:03:02;;;;;;;33.55;24.88;;;19.20;54.70;;;;;;5030224;28;20091;-76
2022/12/05 21:05:28;;;;;;;32.45;24.30;;;19.20;54.80;;;;;;5031264;28;20056;-76
2022/12/05 21:07:53;;;;;;;34.03;24.63;;;19.20;55.00;;;;;;5031574;28;20025;-75
2022/12/05 21:10:19;;;;;;;35.53;24.95;;;19.20;55.00;;;;;;5031406;28;20076;-76
2022/12/05 21:12:45;;;;;;;33.08;24.55;;;19.20;54.90;;;;;;5031219;28;20087;-75
2022/12/05 21:15:11;;;;;;;31.60;23.75;;;19.20;54.90;;;;;;5030871;28;20102;-75
2022/12/05 21:17:37;;;;;;;32.90;25.02;;;19.20;55.20;;;;;;5031367;28;20029;-75
2022/12/05 21:20:04;;;;;;;31.92;23.90;;;19.20;55.00;;;;;;5031202;28;20029;-75
2022/12/05 21:22:30;;;;;;;31.83;23.90;;;19.20;55.10;;;;;;5031086;28;20021;-76
2022/12/05 21:24:55;;;;;;;33.78;24.55;;;19.20;55.10;;;;;;5031395;28;20121;-76
2022/12/05 21:27:21;;;;;;;30.77;23.13;;;19.20;55.10;;;;;;5035333;28;20025;-76
2022/12/05 21:29:47;;;;;;;33.40;24.27;;;19.20;55.10;;;;;;5031646;28;20017;-76
2022/12/05 21:32:13;;;;;;;30.90;23.45;;;19.20;55.40;;;;;;5033915;28;20112;-76
2022/12/05 21:34:38;;;;;;;32.20;23.48;;;19.20;55.20;;;;;;5032437;28;20028;-76
2022/12/05 21:37:04;;;;;;;31.70;23.52;;;19.20;55.30;;;;;;5032788;28;20506;-76
2022/12/05 21:39:30;;;;;;;30.45;22.52;;;19.20;55.20;;;;;;5034961;28;20029;-75
2022/12/05 21:41:57;;;;;;;31.10;22.50;;;19.30;55.20;;;;;;5034708;28;20071;-76
2022/12/05 21:44:22;;;;;;;30.05;22.02;;;19.20;55.30;;;;;;5033643;28;20080;-75
2022/12/05 21:46:48;;;;;;;30.65;22.33;;;19.20;55.40;;;;;;5034948;28;20022;-75
2022/12/05 21:49:14;;;;;;;30.88;22.35;;;19.30;55.30;;;;;;5030878;28;20445;-75
2022/12/05 21:51:40;;;;;;;29.60;22.17;;;19.20;55.40;;;;;;5034332;28;20112;-75
2022/12/05 21:54:05;;;;;;;30.73;22.33;;;19.30;55.50;;;;;;5034390;28;20037;-75
2022/12/05 21:56:31;;;;;;;31.20;22.10;;;19.20;55.50;;;;;;5033525;28;20021;-75
2022/12/05 21:58:57;;;;;;;28.40;21.25;;;19.30;55.30;;;;;;5034801;28;20030;-75
2022/12/05 22:01:25;;;;;;;30.38;21.73;;;19.30;55.50;;;;;;5034281;28;20030;-75
2022/12/05 22:03:53;;;;;;;30.45;22.13;;;19.20;55.40;;;;;;5033366;28;20032;-75
2022/12/05 22:06:19;;;;;;;29.90;21.00;;;19.20;55.30;;;;;;5034485;28;20017;-75
2022/12/05 22:08:45;;;;;;;28.38;21.15;;;19.30;55.40;;;;;;5034504;28;20545;-75
2022/12/05 22:11:14;;;;;;;30.25;21.58;;;19.20;55.40;;;;;;5034242;28;20370;-75
2022/12/05 22:13:41;;;;;;;29.55;20.70;;;19.30;55.30;;;;;;5034967;28;20033;-75
2022/12/05 22:16:07;;;;;;;27.30;20.55;;;19.30;55.40;;;;;;5034113;28;20048;-75
2022/12/05 22:18:34;;;;;;;29.40;20.98;;;19.30;55.30;;;;;;5034615;28;20389;-75
2022/12/05 22:21:05;;;;;;;27.88;21.13;;;19.30;55.90;;;;;;5032838;28;20488;-75
2022/12/05 22:23:33;;;;;;;29.50;20.60;;;19.30;55.60;;;;;;5033072;28;20436;-75
2022/12/05 22:26:00;;;;;;;29.05;20.85;;;19.20;55.50;;;;;;5034166;28;20106;-75
2022/12/05 22:28:26;;;;;;;31.17;21.27;;;19.30;55.20;;;;;;5033012;28;20033;-75
2022/12/05 22:30:54;;;;;;;29.73;20.35;;;19.30;55.30;;;;;;5033793;28;20028;-76
2022/12/05 22:33:20;;;;;;;27.63;20.70;;;19.30;55.40;;;;;;5032932;28;20053;-75
2022/12/05 22:35:51;;;;;;;30.45;20.45;;;19.30;55.40;;;;;;5032543;28;20075;-75
2022/12/05 22:38:17;;;;;;;27.27;20.17;;;19.30;55.50;;;;;;5034082;28;20030;-75
2022/12/05 22:40:43;;;;;;;29.52;19.83;;;19.30;55.30;;;;;;5032449;28;20068;-76
2022/12/05 22:43:09;;;;;;;28.98;20.92;;;19.30;55.40;;;;;;5033899;28;20389;-75
2022/12/05 22:45:35;;;;;;;29.75;20.13;;;19.30;55.50;;;;;;5033796;28;20482;-75
2022/12/05 22:48:01;;;;;;;28.98;20.13;;;19.30;55.50;;;;;;5033830;28;20026;-75
2022/12/05 22:50:27;;;;;;;27.92;19.55;;;19.30;55.40;;;;;;5033572;28;20102;-75
2022/12/05 22:52:52;;;;;;;27.98;19.45;;;19.30;55.40;;;;;;5033812;28;20056;-75
2022/12/05 22:55:18;;;;;;;26.60;18.67;;;19.30;55.50;;;;;;5033701;28;20029;-74
2022/12/05 22:57:44;;;;;;;28.45;18.92;;;19.30;55.40;;;;;;5033452;28;20079;-75
2022/12/05 23:00:10;;;;;;;30.38;19.40;;;19.30;55.50;;;;;;5022847;28;20054;-75
2022/12/05 23:02:36;;;;;;;27.67;18.20;;;19.30;55.10;;;;;;5029782;28;20469;-75
2022/12/05 23:05:02;;;;;;;28.75;18.65;;;19.30;55.60;;;;;;5029332;28;20087;-74
2022/12/05 23:07:28;;;;;;;28.67;18.02;;;19.30;55.80;;;;;;5033081;28;20028;-75
2022/12/05 23:09:53;;;;;;;27.35;18.33;;;19.30;55.60;;;;;;5032445;28;20379;-75
2022/12/05 23:12:19;;;;;;;27.90;17.73;;;19.30;55.70;;;;;;5030233;28;20018;-74
2022/12/05 23:14:45;;;;;;;31.58;20.15;;;19.30;55.60;;;;;;5033119;28;20098;-74
2022/12/05 23:17:11;;;;;;;28.10;18.30;;;19.30;55.90;;;;;;5032096;28;20082;-73
2022/12/05 23:19:36;;;;;;;28.52;18.27;;;19.30;55.80;;;;;;5033345;28;20163;-74
2022/12/05 23:22:02;;;;;;;28.67;18.02;;;19.30;56.40;;;;;;5031673;28;20032;-76
2022/12/05 23:24:28;;;;;;;24.75;17.45;;;19.30;56.30;;;;;;5033066;28;20029;-68
2022/12/05 23:26:54;;;;;;;47.50;31.15;;;19.30;56.00;;;;;;5033078;28;20021;-69
2022/12/05 23:29:20;;;;;;;34.53;23.85;;;19.10;51.20;;;;;;5033280;28;20026;-75
2022/12/05 23:31:46;;;;;;;36.00;26.10;;;19.00;51.80;;;;;;5032639;28;20026;-78
2022/12/05 23:34:12;;;;;;;37.47;25.42;;;19.00;52.00;;;;;;5014189;28;20036;-73
2022/12/05 23:36:38;;;;;;;31.67;23.33;;;19.00;52.60;;;;;;5030457;28;20029;-75
2022/12/05 23:39:06;;;;;;;40.75;22.98;;;19.00;52.70;;;;;;5032785;28;20021;-74
2022/12/05 23:41:32;;;;;;;33.85;21.42;;;19.10;53.90;;;;;;5031483;28;20026;-73
2022/12/05 23:43:58;;;;;;;32.95;22.30;;;19.10;53.80;;;;;;5028276;28;20040;-75
2022/12/05 23:46:26;;;;;;;41.85;21.15;;;19.20;53.60;;;;;;5013890;28;20382;-76
2022/12/05 23:48:54;;;;;;;30.10;21.00;;;19.20;54.30;;;;;;5028145;28;20025;-75
2022/12/05 23:51:22;;;;;;;30.00;21.30;;;19.30;53.90;;;;;;5014462;28;20075;-75
2022/12/05 23:53:53;;;;;;;32.00;20.23;;;19.30;53.60;;;;;;5030487;28;20473;-76
2022/12/05 23:56:22;;;;;;;28.50;20.55;;;19.30;53.30;;;;;;5031301;28;20030;-74
2022/12/05 23:58:48;;;;;;;30.35;20.05;;;19.30;53.70;;;;;;5032389;28;20556;-75
